createdAt,value
2019-01-04T00:00:48.057Z,1.20
2019-01-04T00:06:38.677Z,1.20
2019-01-04T00:09:28.081Z,1.20
2019-01-04T00:12:10.672Z,1.20
2019-01-04T00:15:00.098Z,1.30
2019-01-04T00:17:49.645Z,1.30
2019-01-04T00:20:39.057Z,1.20
2019-01-04T00:26:16.566Z,1.30
2019-01-04T00:29:05.974Z,1.30
2019-01-04T00:31:48.102Z,1.30
2019-01-04T00:34:37.507Z,1.30
2019-01-04T00:37:19.607Z,1.40
2019-01-04T00:39:49.910Z,1.40
2019-01-04T00:48:30.267Z,1.40
2019-01-04T00:51:12.054Z,1.40
2019-01-04T00:54:02.098Z,1.40
2019-01-04T00:57:02.847Z,1.40
2019-01-04T01:00:30.477Z,1.40
2019-01-04T01:03:31.392Z,1.40
2019-01-04T01:06:59.035Z,1.40
2019-01-04T01:10:05.628Z,1.40
2019-01-04T01:13:33.266Z,1.40
2019-01-04T01:16:35.198Z,1.40
2019-01-04T01:20:02.848Z,1.40
2019-01-04T01:23:04.170Z,1.40
2019-01-04T01:26:31.766Z,1.50
2019-01-04T01:29:32.601Z,1.50
2019-01-04T01:33:00.202Z,1.60
2019-01-04T01:39:37.941Z,1.70
2019-01-04T01:43:05.588Z,1.70
2019-01-04T01:46:07.046Z,1.70
2019-01-04T01:49:34.664Z,1.70
2019-01-04T01:52:19.150Z,1.70
2019-01-04T01:55:08.519Z,1.80
2019-01-04T01:57:50.882Z,1.80
2019-01-04T02:00:40.219Z,1.80
2019-01-04T02:03:22.096Z,1.80
2019-01-04T02:09:13.227Z,1.90
2019-01-04T02:12:02.518Z,1.90
2019-01-04T02:14:44.383Z,1.90
2019-01-04T02:17:26.474Z,2.00
2019-01-04T02:20:15.840Z,2.00
2019-01-04T02:22:58.348Z,2.00
2019-01-04T02:25:47.668Z,2.10
2019-01-04T02:28:30.285Z,2.10
2019-01-04T02:33:55.973Z,2.10
2019-01-04T02:37:04.658Z,2.20
2019-01-04T02:45:25.073Z,2.50
2019-01-04T02:48:14.346Z,2.40
2019-01-04T02:50:55.899Z,2.40
2019-01-04T02:53:45.667Z,2.40
2019-01-04T02:56:27.875Z,2.40
2019-01-04T03:02:06.837Z,2.40
2019-01-04T03:04:56.212Z,2.40
2019-01-04T03:07:38.141Z,2.40
2019-01-04T03:13:15.426Z,2.50
2019-01-04T03:16:04.832Z,2.50
2019-01-04T03:18:47.366Z,2.50
2019-01-04T03:24:32.081Z,2.50
2019-01-04T03:27:14.340Z,2.50
2019-01-04T03:30:04.065Z,2.50
2019-01-04T03:32:45.807Z,2.50
2019-01-04T03:38:22.223Z,2.60
2019-01-04T03:44:06.606Z,2.60
2019-01-04T03:46:48.629Z,2.70
2019-01-04T03:52:20.726Z,2.70
2019-01-04T03:55:10.093Z,2.60
2019-01-04T03:57:51.929Z,2.60
2019-01-04T04:00:41.839Z,2.50
2019-01-04T04:03:23.771Z,2.50
2019-01-04T04:09:13.720Z,2.50
2019-01-04T04:15:03.794Z,2.60
2019-01-04T04:17:45.874Z,2.60
2019-01-04T04:20:35.529Z,2.60
2019-01-04T04:23:17.023Z,2.60
2019-01-04T04:26:06.423Z,2.60
2019-01-04T04:28:48.402Z,2.70
2019-01-04T04:31:37.883Z,2.70
2019-01-04T04:34:19.583Z,2.70
2019-01-04T04:45:28.792Z,2.80
2019-01-04T04:48:18.183Z,2.90
2019-01-04T04:51:00.130Z,2.90
2019-01-04T04:53:30.705Z,2.90
2019-01-04T04:56:20.098Z,2.90
2019-01-04T04:59:09.476Z,2.90
2019-01-04T05:01:52.217Z,2.90
2019-01-04T05:04:22.537Z,3.00
2019-01-04T05:07:12.183Z,2.90
2019-01-04T05:12:49.341Z,2.90
2019-01-04T05:15:19.692Z,3.00
2019-01-04T05:18:09.108Z,3.00
2019-01-04T05:20:58.769Z,2.90
2019-01-04T05:23:40.605Z,3.00
2019-01-04T05:29:17.623Z,3.20
2019-01-04T05:32:07.021Z,3.20
2019-01-04T05:34:37.315Z,3.10
2019-01-04T05:37:26.690Z,3.20
2019-01-04T05:43:17.748Z,3.10
2019-01-04T05:46:07.452Z,3.20
2019-01-04T05:48:49.617Z,3.20
2019-01-04T05:51:38.914Z,3.20
2019-01-04T05:54:21.432Z,3.20
2019-01-04T05:57:10.805Z,3.30
2019-01-04T05:59:52.253Z,3.20
2019-01-04T06:02:42.713Z,3.20
2019-01-04T06:05:24.566Z,3.30
2019-01-04T06:08:13.912Z,3.30
2019-01-04T06:10:55.805Z,3.30
2019-01-04T06:13:45.215Z,3.30
2019-01-04T06:16:27.247Z,3.30
2019-01-04T06:19:09.702Z,3.40
2019-01-04T06:24:46.950Z,3.30
2019-01-04T06:27:36.568Z,3.30
2019-01-04T06:30:18.833Z,3.40
2019-01-04T06:33:08.261Z,3.40
2019-01-04T06:35:49.885Z,3.40
2019-01-04T06:41:27.095Z,3.40
2019-01-04T06:44:16.464Z,3.50
2019-01-04T06:47:18.221Z,3.50
2019-01-04T06:50:08.914Z,3.50
2019-01-04T06:52:51.107Z,3.50
2019-01-04T06:56:04.214Z,3.50
2019-01-04T06:58:46.583Z,3.50
2019-01-04T07:01:35.944Z,3.50
2019-01-04T07:04:18.490Z,3.50
2019-01-04T07:06:48.745Z,3.60
2019-01-04T07:09:38.062Z,3.60
2019-01-04T07:12:27.489Z,3.60
2019-01-04T07:15:09.574Z,3.70
2019-01-04T07:17:58.974Z,3.70
2019-01-04T07:20:41.111Z,3.70
2019-01-04T07:23:30.505Z,3.70
2019-01-04T07:26:12.903Z,3.70
2019-01-04T07:29:02.314Z,3.70
2019-01-04T07:31:43.855Z,3.70
2019-01-04T07:37:20.745Z,3.70
2019-01-04T07:39:51.027Z,3.80
2019-01-04T07:42:40.643Z,3.80
2019-01-04T07:45:29.986Z,3.90
2019-01-04T07:48:11.588Z,3.80
2019-01-04T07:51:19.935Z,3.90
2019-01-04T07:54:01.740Z,3.90
2019-01-04T07:56:51.413Z,4.00
2019-01-04T07:59:33.657Z,4.00
2019-01-04T08:02:45.882Z,4.10
2019-01-04T08:05:28.448Z,4.10
2019-01-04T08:08:17.864Z,4.10
2019-01-04T08:11:00.083Z,4.10
2019-01-04T08:13:49.457Z,4.10
2019-01-04T08:19:27.084Z,4.20
2019-01-04T08:22:09.085Z,4.20
2019-01-04T08:27:54.137Z,4.30
2019-01-04T08:30:37.482Z,4.30
2019-01-04T08:33:27.373Z,4.30
2019-01-04T08:36:08.390Z,4.30
2019-01-04T08:38:50.213Z,4.30
2019-01-04T08:41:59.089Z,4.30
2019-01-04T08:44:40.819Z,4.40
2019-01-04T08:50:31.168Z,4.40
2019-01-04T08:56:48.173Z,4.40
2019-01-04T08:59:30.354Z,4.40
2019-01-04T09:05:21.273Z,4.50
2019-01-04T09:08:10.915Z,4.50
2019-01-04T09:10:52.418Z,4.50
2019-01-04T09:19:57.240Z,4.50
2019-01-04T09:22:39.976Z,4.50
2019-01-04T09:25:29.393Z,4.50
2019-01-04T09:28:19.403Z,4.50
2019-01-04T09:33:57.500Z,4.50
2019-01-04T09:36:47.168Z,4.50
2019-01-04T09:39:28.900Z,4.50
2019-01-04T09:42:20.497Z,4.60
2019-01-04T09:45:02.052Z,4.60
2019-01-04T09:47:51.709Z,4.60
2019-01-04T09:50:33.981Z,4.60
2019-01-04T09:53:23.356Z,4.60
2019-01-04T09:56:05.808Z,4.60
2019-01-04T09:58:55.475Z,4.60
2019-01-04T10:01:37.923Z,4.60
2019-01-04T10:04:27.268Z,4.60
2019-01-04T10:07:16.691Z,4.60
2019-01-04T10:09:59.204Z,4.60
2019-01-04T10:15:26.713Z,4.70
2019-01-04T10:21:05.836Z,4.70
2019-01-04T10:23:55.112Z,4.80
2019-01-04T10:26:41.282Z,4.80
2019-01-04T10:29:30.999Z,4.80
2019-01-04T10:32:01.806Z,4.80
2019-01-04T10:34:51.220Z,4.80
2019-01-04T10:37:33.044Z,4.80
2019-01-04T10:43:13.759Z,4.80
2019-01-04T10:46:03.414Z,4.80
2019-01-04T10:48:53.602Z,4.80
2019-01-04T10:54:30.531Z,4.80
2019-01-04T11:00:09.335Z,4.80
2019-01-04T11:02:58.649Z,4.80
2019-01-04T11:05:40.689Z,4.80
2019-01-04T11:08:49.521Z,4.90
2019-01-04T11:11:32.175Z,4.80
2019-01-04T11:14:22.480Z,4.90
2019-01-04T11:17:06.770Z,4.90
2019-01-04T11:22:59.308Z,4.90
2019-01-04T11:26:27.754Z,4.90
2019-01-04T11:29:29.249Z,5.00
2019-01-04T11:32:59.994Z,5.00
2019-01-04T11:35:51.448Z,5.00
2019-01-04T11:39:19.091Z,5.00
2019-01-04T11:42:09.749Z,5.00
2019-01-04T11:45:21.201Z,5.00
2019-01-04T11:48:12.083Z,5.10
2019-01-04T11:54:30.390Z,5.10
2019-01-04T11:57:19.763Z,5.10
2019-01-04T12:00:01.950Z,5.20
2019-01-04T12:02:51.757Z,5.20
2019-01-04T12:05:34.826Z,5.20
2019-01-04T12:08:05.971Z,5.20
2019-01-04T12:10:55.381Z,5.20
2019-01-04T12:13:36.962Z,5.20
2019-01-04T12:16:26.385Z,5.20
2019-01-04T12:19:08.539Z,5.20
2019-01-04T12:21:58.000Z,5.20
2019-01-04T12:24:47.386Z,5.30
2019-01-04T12:27:29.439Z,5.20
2019-01-04T12:30:00.025Z,5.20
2019-01-04T12:32:49.753Z,5.20
2019-01-04T12:35:32.659Z,5.20
2019-01-04T12:38:15.537Z,5.20
2019-01-04T12:41:05.262Z,5.30
2019-01-04T12:43:47.969Z,5.30
2019-01-04T12:49:26.684Z,5.30
2019-01-04T12:52:16.093Z,5.30
2019-01-04T12:54:58.008Z,5.30
2019-01-04T13:00:49.300Z,5.30
2019-01-04T13:03:38.894Z,5.40
2019-01-04T13:06:09.190Z,5.40
2019-01-04T13:08:58.894Z,5.40
2019-01-04T13:14:44.089Z,5.40
2019-01-04T13:17:25.883Z,5.40
2019-01-04T13:20:15.558Z,5.40
2019-01-04T13:23:01.803Z,5.40
2019-01-04T13:25:47.805Z,5.50
2019-01-04T13:28:37.238Z,5.50
2019-01-04T13:31:08.179Z,5.50
2019-01-04T13:33:57.604Z,5.60
2019-01-04T13:36:47.250Z,5.60
2019-01-04T13:39:29.066Z,5.60
2019-01-04T13:47:41.828Z,5.70
2019-01-04T13:50:31.191Z,5.70
2019-01-04T13:53:13.549Z,5.80
2019-01-04T13:56:03.203Z,5.80
2019-01-04T13:58:52.886Z,5.80
2019-01-04T14:01:35.346Z,5.90
2019-01-04T14:04:25.038Z,5.80
2019-01-04T14:07:07.488Z,5.90
2019-01-04T14:09:57.224Z,5.90
2019-01-04T14:12:38.958Z,6.00
2019-01-04T14:15:09.961Z,6.10
2019-01-04T14:17:59.283Z,6.10
2019-01-04T14:20:48.697Z,6.20
2019-01-04T14:23:31.049Z,6.20
2019-01-04T14:26:21.214Z,6.20
2019-01-04T14:29:03.280Z,6.20
2019-01-04T14:32:11.808Z,6.20
2019-01-04T14:34:53.515Z,6.20
2019-01-04T14:37:43.131Z,6.20
2019-01-04T14:40:25.417Z,6.20
2019-01-04T14:43:15.149Z,6.20
2019-01-04T14:45:58.079Z,6.20
2019-01-04T14:48:47.505Z,6.30
2019-01-04T14:51:33.548Z,6.30
2019-01-04T14:54:17.722Z,6.30
2019-01-04T14:59:54.840Z,6.30
2019-01-04T15:02:44.579Z,6.30
2019-01-04T15:07:48.679Z,6.30
2019-01-04T15:10:38.658Z,6.30
2019-01-04T15:13:28.366Z,6.30
2019-01-04T15:16:10.021Z,6.30
2019-01-04T15:18:40.807Z,6.40
2019-01-04T15:21:12.292Z,6.30
2019-01-04T15:24:01.643Z,6.40
2019-01-04T15:29:52.334Z,6.40
2019-01-04T15:32:41.693Z,6.40
2019-01-04T15:35:23.456Z,6.40
2019-01-04T15:38:12.835Z,6.40
2019-01-04T15:40:56.931Z,6.40
2019-01-04T15:43:47.506Z,6.40
2019-01-04T15:46:30.156Z,6.50
2019-01-04T15:51:55.484Z,6.50
2019-01-04T15:54:44.920Z,6.50
2019-01-04T15:57:34.606Z,6.50
2019-01-04T16:00:18.906Z,6.50
2019-01-04T16:03:08.279Z,6.50
2019-01-04T16:05:49.913Z,6.50
2019-01-04T16:08:39.283Z,6.50
2019-01-04T16:11:22.083Z,6.50
2019-01-04T16:14:11.750Z,6.60
2019-01-04T16:16:54.551Z,6.60
2019-01-04T16:19:43.823Z,6.60
2019-01-04T16:22:28.606Z,6.60
2019-01-04T16:25:11.501Z,6.60
2019-01-04T16:30:50.678Z,6.60
2019-01-04T16:33:40.035Z,6.60
2019-01-04T16:36:22.528Z,6.70
2019-01-04T16:39:12.171Z,6.70
2019-01-04T16:41:54.131Z,6.70
2019-01-04T16:44:43.834Z,6.70
2019-01-04T16:47:14.173Z,6.70
2019-01-04T16:52:59.575Z,6.80
2019-01-04T16:55:43.183Z,6.80
2019-01-04T17:01:33.313Z,6.80
2019-01-04T17:04:22.736Z,6.90
2019-01-04T17:06:53.015Z,6.80
2019-01-04T17:09:42.420Z,6.80
2019-01-04T17:12:31.800Z,6.90
2019-01-04T17:15:15.398Z,6.80
2019-01-04T17:21:06.023Z,6.90
2019-01-04T17:23:57.638Z,6.90
2019-01-04T17:26:40.041Z,6.90
2019-01-04T17:32:30.582Z,6.90
2019-01-04T17:35:20.185Z,6.90
2019-01-04T17:38:02.611Z,6.90
2019-01-04T17:40:51.872Z,6.90
2019-01-04T17:43:33.803Z,6.90
2019-01-04T17:46:23.350Z,7.00
2019-01-04T17:49:05.837Z,7.00
2019-01-04T17:54:42.993Z,7.00
2019-01-04T18:00:20.147Z,7.00
2019-01-04T18:05:56.503Z,7.00
2019-01-04T18:08:45.867Z,7.00
2019-01-04T18:11:28.023Z,7.00
2019-01-04T18:17:08.943Z,7.00
2019-01-04T18:19:58.374Z,7.00
2019-01-04T18:22:41.309Z,7.00
2019-01-04T18:25:23.406Z,7.00
2019-01-04T18:28:12.790Z,7.00
2019-01-04T18:30:43.612Z,7.00
2019-01-04T18:33:32.978Z,7.00
2019-01-04T18:36:16.780Z,7.00
2019-01-04T18:39:07.138Z,6.90
2019-01-04T18:41:50.701Z,7.00
2019-01-04T18:44:54.027Z,6.90
2019-01-04T18:47:24.635Z,7.00
2019-01-04T18:50:16.116Z,6.90
2019-01-04T18:52:59.523Z,6.90
2019-01-04T18:55:48.857Z,6.90
2019-01-04T18:58:35.549Z,6.90
2019-01-04T19:01:27.200Z,6.90
2019-01-04T19:04:09.342Z,7.00
2019-01-04T19:07:00.957Z,7.00
2019-01-04T19:09:31.830Z,6.90
2019-01-04T19:12:21.229Z,7.00
2019-01-04T19:15:06.352Z,7.00
2019-01-04T19:17:55.869Z,7.00
2019-01-04T19:20:38.313Z,7.00
2019-01-04T19:26:34.227Z,7.00
2019-01-04T19:29:23.924Z,7.00
2019-01-04T19:35:03.130Z,7.00
2019-01-04T19:38:06.238Z,7.00
2019-01-04T19:40:36.267Z,7.00
2019-01-04T19:43:25.656Z,7.10
2019-01-04T19:46:08.057Z,7.10
2019-01-04T19:48:57.487Z,7.10
2019-01-04T19:51:40.202Z,7.10
2019-01-04T19:54:29.938Z,7.10
2019-01-04T19:57:14.157Z,7.10
2019-01-04T20:00:22.767Z,7.10
2019-01-04T20:10:09.360Z,7.10
2019-01-04T20:13:11.227Z,7.10
2019-01-04T20:16:44.823Z,7.10
2019-01-04T20:19:52.050Z,7.10
2019-01-04T20:23:02.339Z,7.10
2019-01-04T20:26:20.521Z,7.10
2019-01-04T20:29:17.049Z,7.10
2019-01-04T20:32:19.497Z,7.10
2019-01-04T20:35:28.078Z,7.20
2019-01-04T20:38:29.344Z,7.10
2019-01-04T20:41:37.605Z,7.10
2019-01-04T20:44:39.656Z,7.10
2019-01-04T20:48:03.020Z,7.10
2019-01-04T20:50:51.976Z,7.10
2019-01-04T20:53:53.214Z,7.10
2019-01-04T21:09:20.425Z,7.10
2019-01-04T21:12:28.103Z,7.10
2019-01-04T21:15:28.811Z,7.10
2019-01-04T21:18:37.979Z,7.10
2019-01-04T21:21:40.457Z,7.20
2019-01-04T21:24:42.445Z,7.20
2019-01-04T21:27:43.948Z,7.20
2019-01-04T21:31:06.870Z,7.20
2019-01-04T21:33:54.888Z,7.20
2019-01-04T21:36:44.288Z,7.20
2019-01-04T21:39:52.900Z,7.30
2019-01-04T21:42:54.105Z,7.30
2019-01-04T21:45:58.204Z,7.30
2019-01-04T21:48:47.357Z,7.30
2019-01-04T21:51:51.223Z,7.30
2019-01-04T21:54:40.386Z,7.30
2019-01-04T21:57:47.146Z,7.30
2019-01-04T22:00:55.423Z,7.30
2019-01-04T22:04:01.642Z,7.30
2019-01-04T22:07:07.268Z,7.30
2019-01-04T22:10:08.454Z,7.30
2019-01-04T22:13:12.892Z,7.40
2019-01-04T22:16:02.034Z,7.40
2019-01-04T22:19:03.357Z,7.40
2019-01-04T22:22:11.912Z,7.40
2019-01-04T22:25:14.812Z,7.40
2019-01-04T22:28:19.022Z,7.40
2019-01-04T22:31:27.310Z,7.40
2019-01-04T22:34:28.675Z,7.40
2019-01-04T22:37:36.979Z,7.40
2019-01-04T22:40:38.981Z,7.40
2019-01-04T22:43:47.282Z,7.50
2019-01-04T22:46:49.100Z,7.50
2019-01-04T22:50:21.006Z,7.50
2019-01-04T22:53:26.032Z,7.50
2019-01-04T22:56:35.528Z,7.50
2019-01-04T22:59:40.087Z,7.50
2019-01-04T23:02:37.255Z,7.50
2019-01-04T23:05:43.930Z,7.50
2019-01-04T23:08:52.512Z,7.50
2019-01-04T23:11:57.021Z,7.60
2019-01-04T23:15:05.545Z,7.60
2019-01-04T23:18:07.078Z,7.60
2019-01-04T23:20:56.253Z,7.60
2019-01-04T23:27:05.000Z,7.70
2019-01-04T23:30:08.835Z,7.60
2019-01-04T23:32:58.202Z,7.70
2019-01-04T23:36:07.047Z,7.70
2019-01-04T23:38:56.483Z,7.70
2019-01-04T23:42:26.235Z,7.70
2019-01-04T23:45:29.813Z,7.70
2019-01-04T23:48:31.846Z,7.70
2019-01-04T23:54:53.751Z,7.70
2019-01-04T23:57:43.708Z,7.70
